Stephen R Warden — WDC6523 — position and weather

sailwx.info

Track history (hours):
 
Tides and Currents Weather Stations Pressure Air Temp Water Temp Dewpoint Dewpoint Depression Visibility Wind Speed Wind Dir Waves Ship Positions

Stephen R Warden

Owner: American Commercial Lines LLC, Jeffersonvile, IN. More information available from US FCC via Universal Licensing System and Coast Guard Vessel Documentation Center.

Last reported at 2014-Dec-19 00:18 UTC. Time now 2014-Dec-20 00:49 UTC.
Position N 29°56' W 090°11'.

Length 37 m; draft 3 m.

Type: Towing. MMSI: 367057460.

Date/timePositionNaut miles runAvg speedWind from/ knotsBaromVisibWave heightAir tempDewpointWater temp
2014-Dec-19 00:18N 29°56' W 090°11'2 2.7
2014-Dec-18 23:34N 29°57' W 090°08'4 4.0
2014-Dec-18 22:32N 29°56' W 090°04'4 3.6
2014-Dec-18 21:21N 29°56' W 089°59'18 1.9
2014-Dec-18 11:33N 29°38' W 089°55'0 0.0
2014-Dec-18 10:26N 29°38' W 089°55'50 1.1
2014-Dec-16 10:33N 30°00' W 090°47'11 5.2
2014-Dec-16 08:22N 30°08' W 090°56'13 0.5
2014-Dec-15 06:28N 30°01' W 090°44'0 0.0
2014-Dec-15 05:33N 30°01' W 090°44'1 0.9
2014-Dec-15 04:08N 30°01' W 090°43'3 3.7
2014-Dec-15 03:26N 30°03' W 090°40'38 1.5
2014-Dec-14 02:24N 29°53' W 089°58'6 0.5
2014-Dec-13 14:12N 29°48' W 090°01'0 0.0
2014-Dec-13 12:24N 29°48' W 090°01'1 0.7
2014-Dec-13 11:32N 29°47' W 090°01'30 1.4
2014-Dec-12 13:18N 30°03' W 090°30'6 6.5
2014-Dec-12 12:20N 30°02' W 090°38'5 5.9
2014-Dec-12 11:31N 30°01' W 090°43'2 0.1
2014-Dec-11 13:22N 30°01' W 090°46'0 0.4
2014-Dec-11 12:26N 30°01' W 090°45'6 4.6
2014-Dec-11 11:09N 30°04' W 090°51'4 5.7
2014-Dec-11 10:32N 30°06' W 090°55'3 2.5
2014-Dec-11 09:22N 30°06' W 090°58'0 0.5
2014-Dec-11 08:26N 30°07' W 090°57'3 2.6
2014-Dec-11 07:22N 30°05' W 090°55'1 0.6
2014-Dec-11 06:04N 30°04' W 090°54'0 0.4
2014-Dec-11 05:11N 30°05' W 090°55'2 3.6
2014-Dec-11 04:33N 30°04' W 090°52'4 4.1
2014-Dec-11 03:29N 29°60' W 090°50'4 2.0
2014-Dec-11 01:18N 30°01' W 090°45'9 0.7
2014-Dec-10 12:17N 30°05' W 090°54'3 0.1
2014-Dec-09 11:22N 30°07' W 090°57'2 1.9
2014-Dec-09 10:28N 30°07' W 090°55'1 1.5
2014-Dec-09 09:33N 30°06' W 090°55'4 4.2
2014-Dec-09 08:28N 30°03' W 090°51'3 3.1
2014-Dec-09 07:29N 30°00' W 090°50'3 3.1
2014-Dec-09 06:30N 30°01' W 090°46'1 0.3
2014-Dec-09 02:09N 30°01' W 090°45'1 1.3
2014-Dec-09 01:33N 30°01' W 090°44'  
Track history (hours):
 
Tides and Currents Weather Stations Pressure Air Temp Water Temp Dewpoint Dewpoint Depression Visibility Wind Speed Wind Dir Waves Ship Positions

Stephen R Warden

Owner: American Commercial Lines LLC, Jeffersonvile, IN. More information available from US FCC via Universal Licensing System and Coast Guard Vessel Documentation Center.

Last reported at 2014-Dec-19 00:18 UTC. Time now 2014-Dec-20 00:49 UTC.
Position N 29°56' W 090°11'.

Length 37 m; draft 3 m.

Type: Towing. MMSI: 367057460.

Date/timePositionNaut miles runAvg speedWind from/ knotsBaromVisibWave heightAir tempDewpointWater temp
2014-Dec-19 00:18N 29°56' W 090°11'2 2.7
2014-Dec-18 23:34N 29°57' W 090°08'4 4.0
2014-Dec-18 22:32N 29°56' W 090°04'4 3.6
2014-Dec-18 21:21N 29°56' W 089°59'18 1.9
2014-Dec-18 11:33N 29°38' W 089°55'0 0.0
2014-Dec-18 10:26N 29°38' W 089°55'50 1.1
2014-Dec-16 10:33N 30°00' W 090°47'11 5.2
2014-Dec-16 08:22N 30°08' W 090°56'13 0.5
2014-Dec-15 06:28N 30°01' W 090°44'0 0.0
2014-Dec-15 05:33N 30°01' W 090°44'1 0.9
2014-Dec-15 04:08N 30°01' W 090°43'3 3.7
2014-Dec-15 03:26N 30°03' W 090°40'38 1.5
2014-Dec-14 02:24N 29°53' W 089°58'6 0.5
2014-Dec-13 14:12N 29°48' W 090°01'0 0.0
2014-Dec-13 12:24N 29°48' W 090°01'1 0.7
2014-Dec-13 11:32N 29°47' W 090°01'30 1.4
2014-Dec-12 13:18N 30°03' W 090°30'6 6.5
2014-Dec-12 12:20N 30°02' W 090°38'5 5.9
2014-Dec-12 11:31N 30°01' W 090°43'2 0.1
2014-Dec-11 13:22N 30°01' W 090°46'0 0.4
2014-Dec-11 12:26N 30°01' W 090°45'6 4.6
2014-Dec-11 11:09N 30°04' W 090°51'4 5.7
2014-Dec-11 10:32N 30°06' W 090°55'3 2.5
2014-Dec-11 09:22N 30°06' W 090°58'0 0.5
2014-Dec-11 08:26N 30°07' W 090°57'3 2.6
2014-Dec-11 07:22N 30°05' W 090°55'1 0.6
2014-Dec-11 06:04N 30°04' W 090°54'0 0.4
2014-Dec-11 05:11N 30°05' W 090°55'2 3.6
2014-Dec-11 04:33N 30°04' W 090°52'4 4.1
2014-Dec-11 03:29N 29°60' W 090°50'4 2.0
2014-Dec-11 01:18N 30°01' W 090°45'9 0.7
2014-Dec-10 12:17N 30°05' W 090°54'3 0.1
2014-Dec-09 11:22N 30°07' W 090°57'2 1.9
2014-Dec-09 10:28N 30°07' W 090°55'1 1.5
2014-Dec-09 09:33N 30°06' W 090°55'4 4.2
2014-Dec-09 08:28N 30°03' W 090°51'3 3.1
2014-Dec-09 07:29N 30°00' W 090°50'3 3.1
2014-Dec-09 06:30N 30°01' W 090°46'1 0.3
2014-Dec-09 02:09N 30°01' W 090°45'1 1.3
2014-Dec-09 01:33N 30°01' W 090°44'  

Dump ship's entire track history